createdAt,value
2023-04-04T00:01:10.187Z,-4.20
2023-04-04T00:03:38.766Z,-4.30
2023-04-04T00:06:07.747Z,-4.30
2023-04-04T00:08:37.595Z,-4.30
2023-04-04T00:11:06.492Z,-4.30
2023-04-04T00:13:34.719Z,-4.30
2023-04-04T00:16:03.471Z,-4.30
2023-04-04T00:18:32.637Z,-4.30
2023-04-04T00:21:00.897Z,-4.30
2023-04-04T00:23:29.815Z,-4.30
2023-04-04T00:25:59.429Z,-4.40
2023-04-04T00:28:27.695Z,-4.50
2023-04-04T00:30:56.864Z,-4.50
2023-04-04T00:33:25.185Z,-4.50
2023-04-04T00:35:53.689Z,-4.50
2023-04-04T00:38:22.447Z,-4.50
2023-04-04T00:40:52.615Z,-4.40
2023-04-04T00:43:22.161Z,-4.40
2023-04-04T00:45:53.088Z,-4.50
2023-04-04T00:48:24.460Z,-4.50
2023-04-04T00:50:53.833Z,-4.60
2023-04-04T00:53:22.229Z,-4.60
2023-04-04T00:55:50.589Z,-4.70
2023-04-04T00:58:19.682Z,-4.70
2023-04-04T01:00:49.366Z,-4.70
2023-04-04T01:03:17.665Z,-4.70
2023-04-04T01:05:47.209Z,-4.70
2023-04-04T01:08:17.980Z,-4.80
2023-04-04T01:10:46.452Z,-4.80
2023-04-04T01:13:14.682Z,-4.80
2023-04-04T01:15:43.264Z,-4.80
2023-04-04T01:18:17.330Z,-4.90
2023-04-04T01:20:54.028Z,-4.90
2023-04-04T01:23:25.478Z,-4.90
2023-04-04T01:26:04.009Z,-5.00
2023-04-04T01:28:32.513Z,-5.00
2023-04-04T01:31:03.390Z,-5.00
2023-04-04T01:33:37.792Z,-4.90
2023-04-04T01:36:15.764Z,-4.90
2023-04-04T01:38:54.984Z,-4.90
2023-04-04T01:41:26.467Z,-5.00
2023-04-04T01:43:55.718Z,-5.10
2023-04-04T01:46:24.746Z,-5.10
2023-04-04T01:48:53.039Z,-5.10
2023-04-04T01:51:22.735Z,-5.10
2023-04-04T01:53:50.998Z,-5.10
2023-04-04T01:56:19.304Z,-5.20
2023-04-04T01:58:49.295Z,-5.20
2023-04-04T02:01:17.504Z,-5.20
2023-04-04T02:03:47.448Z,-5.20
2023-04-04T02:06:16.275Z,-5.20
2023-04-04T02:08:44.432Z,-5.20
2023-04-04T02:11:12.690Z,-5.30
2023-04-04T02:13:44.698Z,-5.30
2023-04-04T02:16:15.560Z,-5.30
2023-04-04T02:18:44.026Z,-5.40
2023-04-04T02:21:12.711Z,-5.40
2023-04-04T02:23:41.244Z,-5.40
2023-04-04T02:26:09.547Z,-5.40
2023-04-04T02:28:37.803Z,-5.50
2023-04-04T02:31:06.291Z,-5.40
2023-04-04T02:33:35.970Z,-5.50
2023-04-04T02:36:04.555Z,-5.40
2023-04-04T02:38:33.463Z,-5.50
2023-04-04T02:41:01.742Z,-5.50
2023-04-04T02:43:30.524Z,-5.50
2023-04-04T02:46:01.184Z,-5.50
2023-04-04T02:48:34.183Z,-5.60
2023-04-04T02:51:04.162Z,-5.60
2023-04-04T02:53:32.510Z,-5.60
2023-04-04T02:56:04.206Z,-5.60
2023-04-04T02:58:33.389Z,-5.60
2023-04-04T03:01:01.567Z,-5.60
2023-04-04T03:03:30.644Z,-5.60
2023-04-04T03:06:00.151Z,-5.60
2023-04-04T03:08:30.288Z,-5.60
2023-04-04T03:10:58.529Z,-5.60
2023-04-04T03:13:27.171Z,-5.70
2023-04-04T03:16:00.700Z,-5.70
2023-04-04T03:18:29.162Z,-5.60
2023-04-04T03:20:57.379Z,-5.70
2023-04-04T03:23:26.070Z,-5.70
2023-04-04T03:25:56.222Z,-5.70
2023-04-04T03:28:24.370Z,-5.70
2023-04-04T03:30:52.640Z,-5.70
2023-04-04T03:33:21.851Z,-5.70
2023-04-04T03:35:50.209Z,-5.80
2023-04-04T03:38:18.775Z,-5.80
2023-04-04T03:40:47.492Z,-5.80
2023-04-04T03:43:17.443Z,-5.80
2023-04-04T03:45:46.214Z,-5.80
2023-04-04T03:48:14.940Z,-5.70
2023-04-04T03:50:43.220Z,-5.80
2023-04-04T03:53:13.378Z,-5.80
2023-04-04T03:55:43.036Z,-5.80
2023-04-04T03:58:11.297Z,-5.80
2023-04-04T04:00:41.241Z,-5.80
2023-04-04T04:03:10.191Z,-5.80
2023-04-04T04:05:38.446Z,-5.80
2023-04-04T04:08:07.358Z,-5.80
2023-04-04T04:10:36.402Z,-5.80
2023-04-04T04:13:04.503Z,-5.80
2023-04-04T04:15:33.193Z,-5.80
2023-04-04T04:18:03.063Z,-5.80
2023-04-04T04:20:31.396Z,-5.80
2023-04-04T04:23:00.133Z,-5.80
2023-04-04T04:25:28.426Z,-5.70
2023-04-04T04:27:57.778Z,-5.70
2023-04-04T04:30:26.360Z,-5.60
2023-04-04T04:32:54.957Z,-5.60
2023-04-04T04:35:24.647Z,-5.50
2023-04-04T04:37:53.190Z,-5.40
2023-04-04T04:40:22.158Z,-5.30
2023-04-04T04:42:51.877Z,-5.20
2023-04-04T04:45:21.317Z,-5.10
2023-04-04T04:47:49.896Z,-5.00
2023-04-04T04:50:18.460Z,-5.00
2023-04-04T04:52:48.162Z,-4.90
2023-04-04T04:55:17.828Z,-4.80
2023-04-04T04:57:48.052Z,-4.70
2023-04-04T05:00:18.170Z,-4.70
2023-04-04T05:02:46.448Z,-4.50
2023-04-04T05:05:14.926Z,-4.40
2023-04-04T05:07:48.263Z,-4.30
2023-04-04T05:10:16.790Z,-4.20
2023-04-04T05:12:45.943Z,-4.10
2023-04-04T05:15:14.896Z,-4.00
2023-04-04T05:17:43.189Z,-3.90
2023-04-04T05:20:12.619Z,-3.80
2023-04-04T05:22:44.442Z,-3.60
2023-04-04T05:25:14.939Z,-3.60
2023-04-04T05:27:43.203Z,-3.40
2023-04-04T05:30:12.782Z,-3.30
2023-04-04T05:32:41.029Z,-3.10
2023-04-04T05:35:10.069Z,-3.00
2023-04-04T05:37:41.296Z,-2.90
2023-04-04T05:40:11.368Z,-2.80
2023-04-04T05:42:40.843Z,-2.70
2023-04-04T05:45:11.091Z,-2.50
2023-04-04T05:47:39.320Z,-2.50
2023-04-04T05:50:08.630Z,-2.40
2023-04-04T05:52:37.250Z,-2.30
2023-04-04T05:55:06.128Z,-2.20
2023-04-04T05:57:36.333Z,-2.10
2023-04-04T06:00:07.995Z,-2.00
2023-04-04T06:02:37.103Z,-1.90
2023-04-04T06:05:06.439Z,-1.80
2023-04-04T06:07:34.732Z,-1.80
2023-04-04T06:10:02.900Z,-1.70
2023-04-04T06:12:31.287Z,-1.60
2023-04-04T06:14:59.873Z,-1.60
2023-04-04T06:17:29.618Z,-1.60
2023-04-04T06:19:58.209Z,-1.60
2023-04-04T06:22:26.593Z,-1.60
2023-04-04T06:24:54.762Z,-1.50
2023-04-04T06:27:23.548Z,-1.30
2023-04-04T06:29:52.046Z,-1.30
2023-04-04T06:32:21.825Z,-1.20
2023-04-04T06:34:51.585Z,-1.10
2023-04-04T06:37:20.291Z,-1.00
2023-04-04T06:39:48.416Z,-0.90
2023-04-04T06:42:17.099Z,-0.80
2023-04-04T06:44:45.593Z,-0.80
2023-04-04T06:47:13.909Z,-0.90
2023-04-04T06:49:42.560Z,-0.80
2023-04-04T06:52:12.240Z,-0.70
2023-04-04T06:54:40.411Z,-0.50
2023-04-04T06:57:08.848Z,-0.40
2023-04-04T06:59:37.158Z,-0.30
2023-04-04T07:02:05.544Z,-0.20
2023-04-04T07:04:35.286Z,-0.10
2023-04-04T07:07:04.198Z,-0.10
2023-04-04T07:09:33.761Z,-0.20
2023-04-04T07:12:02.403Z,-0.30
2023-04-04T07:14:30.575Z,-0.20
2023-04-04T07:16:58.810Z,-0.20
2023-04-04T07:19:28.863Z,-0.20
2023-04-04T07:21:57.619Z,-0.20
2023-04-04T07:24:25.880Z,-0.10
2023-04-04T07:26:55.786Z,-0.10
2023-04-04T07:29:24.086Z,0.00
2023-04-04T07:31:52.407Z,0.00
2023-04-04T07:34:20.955Z,0.10
2023-04-04T07:36:49.691Z,0.10
2023-04-04T07:39:17.988Z,0.20
2023-04-04T07:41:46.745Z,0.30
2023-04-04T07:44:16.746Z,0.40
2023-04-04T07:46:47.831Z,0.50
2023-04-04T07:49:18.456Z,0.60
2023-04-04T07:51:46.714Z,0.60
2023-04-04T07:54:14.880Z,0.60
2023-04-04T07:56:43.113Z,0.70
2023-04-04T07:59:11.334Z,0.70
2023-04-04T08:01:41.362Z,0.80
2023-04-04T08:04:10.228Z,0.80
2023-04-04T08:06:39.738Z,0.80
2023-04-04T08:09:08.196Z,0.90
2023-04-04T08:11:36.643Z,1.00
2023-04-04T08:14:06.080Z,1.00
2023-04-04T08:16:34.426Z,1.00
2023-04-04T08:19:04.530Z,1.10
2023-04-04T08:21:32.889Z,1.30
2023-04-04T08:24:01.120Z,1.40
2023-04-04T08:26:30.627Z,1.20
2023-04-04T08:28:59.103Z,1.20
2023-04-04T08:31:27.502Z,1.20
2023-04-04T08:33:55.879Z,1.20
2023-04-04T08:36:25.465Z,1.30
2023-04-04T08:38:54.206Z,1.30
2023-04-04T08:41:22.973Z,1.40
2023-04-04T08:43:55.308Z,1.50
2023-04-04T08:46:24.336Z,1.60
2023-04-04T08:48:54.422Z,1.80
2023-04-04T08:51:26.871Z,2.00
2023-04-04T08:53:55.494Z,2.10
2023-04-04T08:56:25.207Z,2.10
2023-04-04T08:58:53.841Z,2.00
2023-04-04T09:01:23.130Z,2.00
2023-04-04T09:03:52.956Z,1.90
2023-04-04T09:06:21.933Z,2.20
2023-04-04T09:08:53.988Z,2.20
2023-04-04T09:11:23.590Z,2.30
2023-04-04T09:13:53.443Z,2.60
2023-04-04T09:16:21.823Z,2.70
2023-04-04T09:18:50.233Z,2.80
2023-04-04T09:21:20.794Z,2.90
2023-04-04T09:23:49.140Z,3.00
2023-04-04T09:26:18.685Z,3.10
2023-04-04T09:28:54.114Z,3.30
2023-04-04T09:31:22.877Z,3.20
2023-04-04T09:33:51.685Z,3.10
2023-04-04T09:36:20.691Z,3.20
2023-04-04T09:38:49.886Z,3.40
2023-04-04T09:41:21.503Z,3.50
2023-04-04T09:43:50.304Z,3.60
2023-04-04T09:46:21.828Z,3.80
2023-04-04T09:48:51.768Z,3.90
2023-04-04T09:51:19.954Z,4.30
2023-04-04T09:53:49.692Z,4.50
2023-04-04T09:56:20.312Z,4.60
2023-04-04T09:59:00.281Z,5.00
2023-04-04T10:01:32.095Z,4.70
2023-04-04T10:04:00.595Z,5.00
2023-04-04T10:06:28.924Z,5.20
2023-04-04T10:08:58.545Z,5.60
2023-04-04T10:11:33.644Z,6.20
2023-04-04T10:14:04.224Z,6.60
2023-04-04T10:16:34.586Z,7.50
2023-04-04T10:19:03.632Z,8.40
2023-04-04T10:21:32.336Z,9.50
2023-04-04T10:24:02.206Z,11.00
2023-04-04T10:26:31.949Z,12.20
2023-04-04T10:29:01.125Z,11.40
2023-04-04T10:31:30.516Z,9.40
2023-04-04T10:34:11.411Z,9.80
2023-04-04T10:36:47.257Z,11.50
2023-04-04T10:39:19.741Z,9.80
2023-04-04T10:41:52.584Z,7.90
2023-04-04T10:44:26.178Z,7.80
2023-04-04T10:46:55.901Z,7.50
2023-04-04T10:49:24.274Z,6.80
2023-04-04T10:51:56.951Z,6.80
2023-04-04T10:54:26.991Z,6.90
2023-04-04T10:57:00.988Z,7.10
2023-04-04T10:59:29.830Z,7.00
2023-04-04T11:01:59.270Z,7.00
2023-04-04T11:04:35.382Z,6.90
2023-04-04T11:07:13.962Z,6.60
2023-04-04T11:10:02.103Z,6.90
2023-04-04T11:12:34.269Z,7.20
2023-04-04T11:15:11.639Z,7.30
2023-04-04T11:18:00.158Z,7.20
2023-04-04T11:20:33.791Z,7.00
2023-04-04T11:23:24.434Z,7.10
2023-04-04T11:25:54.100Z,7.20
2023-04-04T11:28:46.189Z,7.00
2023-04-04T11:31:29.777Z,6.60
2023-04-04T11:34:00.613Z,6.40
2023-04-04T11:36:56.352Z,6.20
2023-04-04T11:39:28.538Z,6.30
2023-04-04T11:42:03.930Z,6.20
2023-04-04T11:44:35.554Z,6.30
2023-04-04T11:47:11.900Z,6.10
2023-04-04T11:49:43.111Z,6.10
2023-04-04T11:52:13.763Z,6.40
2023-04-04T11:54:43.820Z,6.50
2023-04-04T11:57:13.687Z,6.70
2023-04-04T11:59:45.861Z,6.80
2023-04-04T12:02:18.101Z,6.30
2023-04-04T12:04:48.194Z,6.00
2023-04-04T12:07:18.872Z,6.40
2023-04-04T12:09:47.419Z,6.80
2023-04-04T12:12:17.103Z,7.10
2023-04-04T12:14:47.055Z,6.90
2023-04-04T12:17:17.057Z,6.90
2023-04-04T12:19:45.588Z,6.90
2023-04-04T12:22:14.159Z,6.80
2023-04-04T12:24:42.645Z,6.90
2023-04-04T12:27:10.953Z,7.30
2023-04-04T12:29:39.302Z,7.50
2023-04-04T12:32:12.471Z,8.00
2023-04-04T12:34:48.488Z,8.80
2023-04-04T12:37:19.721Z,8.90
2023-04-04T12:39:50.124Z,8.40
2023-04-04T12:42:23.230Z,7.90
2023-04-04T12:44:52.883Z,7.90
2023-04-04T12:47:24.572Z,7.90
2023-04-04T12:49:55.357Z,7.90
2023-04-04T12:52:27.891Z,7.80
2023-04-04T12:55:08.208Z,7.50
2023-04-04T12:57:38.273Z,7.60
2023-04-04T13:00:08.520Z,7.60
2023-04-04T13:02:40.587Z,7.30
2023-04-04T13:05:11.307Z,7.20
2023-04-04T13:07:44.506Z,6.90
2023-04-04T13:10:15.996Z,6.80
2023-04-04T13:12:56.840Z,6.90
2023-04-04T13:15:25.418Z,6.90
2023-04-04T13:17:55.029Z,6.80
2023-04-04T13:20:24.624Z,6.70
2023-04-04T13:22:52.836Z,6.70
2023-04-04T13:25:20.980Z,6.50
2023-04-04T13:27:49.187Z,6.40
2023-04-04T13:30:17.589Z,6.20
2023-04-04T13:32:45.860Z,6.00
2023-04-04T13:35:16.161Z,6.10
2023-04-04T13:37:44.360Z,6.20
2023-04-04T13:40:13.026Z,6.40
2023-04-04T13:42:41.399Z,6.40
2023-04-04T13:45:11.414Z,6.40
2023-04-04T13:47:39.678Z,6.60
2023-04-04T13:50:09.230Z,6.60
2023-04-04T13:52:39.123Z,6.50
2023-04-04T13:55:08.097Z,6.40
2023-04-04T13:57:36.584Z,6.10
2023-04-04T14:00:05.707Z,6.10
2023-04-04T14:02:33.936Z,6.20
2023-04-04T14:05:02.191Z,6.20
2023-04-04T14:07:30.370Z,6.00
2023-04-04T14:09:59.910Z,5.80
2023-04-04T14:12:28.318Z,5.70
2023-04-04T14:14:56.463Z,5.60
2023-04-04T14:17:24.747Z,5.60
2023-04-04T14:19:53.345Z,5.50
2023-04-04T14:22:21.539Z,5.30
2023-04-04T14:24:49.652Z,5.40
2023-04-04T14:27:19.637Z,5.40
2023-04-04T14:29:48.277Z,5.50
2023-04-04T14:32:17.066Z,5.40
2023-04-04T14:34:45.226Z,5.50
2023-04-04T14:37:13.392Z,5.60
2023-04-04T14:39:41.567Z,5.70
2023-04-04T14:42:09.783Z,5.70
2023-04-04T14:44:39.468Z,5.60
2023-04-04T14:47:07.713Z,5.50
2023-04-04T14:49:36.343Z,5.40
2023-04-04T14:52:05.161Z,5.20
2023-04-04T14:54:33.488Z,5.10
2023-04-04T14:57:02.216Z,5.20
2023-04-04T14:59:30.691Z,5.20
2023-04-04T15:02:00.244Z,5.20
2023-04-04T15:04:28.522Z,5.20
2023-04-04T15:07:00.818Z,5.30
2023-04-04T15:09:30.325Z,5.30
2023-04-04T15:11:59.644Z,5.20
2023-04-04T15:14:27.771Z,5.20
2023-04-04T15:16:56.057Z,5.20
2023-04-04T15:19:26.046Z,5.20
2023-04-04T15:21:57.305Z,5.20
2023-04-04T15:24:25.659Z,5.20
2023-04-04T15:26:55.756Z,5.20
2023-04-04T15:29:24.738Z,5.10
2023-04-04T15:31:53.368Z,5.10
2023-04-04T15:34:21.598Z,5.00
2023-04-04T15:36:52.231Z,5.00
2023-04-04T15:39:25.075Z,4.90
2023-04-04T15:41:53.175Z,4.80
2023-04-04T15:44:21.436Z,4.90
2023-04-04T15:46:50.014Z,4.80
2023-04-04T15:49:18.742Z,4.90
2023-04-04T15:51:46.927Z,4.80
2023-04-04T15:54:17.026Z,4.80
2023-04-04T15:56:45.499Z,4.90
2023-04-04T15:59:13.727Z,4.90
2023-04-04T16:01:42.274Z,4.90
2023-04-04T16:04:10.620Z,4.80
2023-04-04T16:06:38.947Z,4.80
2023-04-04T16:09:07.333Z,4.80
2023-04-04T16:11:37.099Z,4.80
2023-04-04T16:14:06.005Z,4.70
2023-04-04T16:16:34.494Z,4.70
2023-04-04T16:19:02.768Z,4.60
2023-04-04T16:21:32.312Z,4.50
2023-04-04T16:24:00.567Z,4.50
2023-04-04T16:26:29.017Z,4.50
2023-04-04T16:28:58.678Z,4.50
2023-04-04T16:31:27.428Z,4.40
2023-04-04T16:33:55.915Z,4.40
2023-04-04T16:36:24.293Z,4.30
2023-04-04T16:38:54.626Z,4.30
2023-04-04T16:41:22.867Z,4.30
2023-04-04T16:43:52.841Z,4.30
2023-04-04T16:46:23.002Z,4.20
2023-04-04T16:48:51.658Z,4.30
2023-04-04T16:51:19.909Z,4.20
2023-04-04T16:53:48.084Z,4.20
2023-04-04T16:56:16.374Z,4.10
2023-04-04T16:58:45.178Z,4.00
2023-04-04T17:01:15.297Z,3.90
2023-04-04T17:03:44.940Z,3.80
2023-04-04T17:06:14.242Z,3.80
2023-04-04T17:08:43.208Z,3.70
2023-04-04T17:11:13.014Z,3.70
2023-04-04T17:13:41.259Z,3.50
2023-04-04T17:16:09.869Z,3.50
2023-04-04T17:18:38.243Z,3.40
2023-04-04T17:21:08.002Z,3.30
2023-04-04T17:23:36.591Z,3.10
2023-04-04T17:26:04.878Z,3.00
2023-04-04T17:28:32.983Z,2.80
2023-04-04T17:31:01.562Z,2.60
2023-04-04T17:33:30.159Z,2.50
2023-04-04T17:35:58.377Z,2.30
2023-04-04T17:38:30.470Z,2.20
2023-04-04T17:41:03.944Z,2.00
2023-04-04T17:43:32.417Z,1.90
2023-04-04T17:46:01.535Z,1.70
2023-04-04T17:48:32.663Z,1.60
2023-04-04T17:51:01.411Z,1.50
2023-04-04T17:53:30.968Z,1.30
2023-04-04T17:56:00.080Z,1.20
2023-04-04T17:58:28.612Z,1.10
2023-04-04T18:00:57.681Z,1.00
2023-04-04T18:03:26.806Z,0.90
2023-04-04T18:05:55.313Z,0.80
2023-04-04T18:08:23.518Z,0.70
2023-04-04T18:10:53.081Z,0.70
2023-04-04T18:13:21.923Z,0.60
2023-04-04T18:15:50.875Z,0.50
2023-04-04T18:18:21.508Z,0.40
2023-04-04T18:20:49.978Z,0.30
2023-04-04T18:23:18.300Z,0.20
2023-04-04T18:25:46.792Z,0.20
2023-04-04T18:28:16.534Z,0.10
2023-04-04T18:30:45.180Z,0.00
2023-04-04T18:33:13.736Z,0.00
2023-04-04T18:35:41.995Z,-0.10
2023-04-04T18:38:10.593Z,-0.20
2023-04-04T18:40:39.479Z,-0.20
2023-04-04T18:43:08.717Z,-0.20
2023-04-04T18:45:40.702Z,-0.30
2023-04-04T18:48:09.489Z,-0.30
2023-04-04T18:50:37.947Z,-0.40
2023-04-04T18:53:06.361Z,-0.40
2023-04-04T18:55:34.532Z,-0.50
2023-04-04T18:58:02.968Z,-0.50
2023-04-04T19:00:31.272Z,-0.50
2023-04-04T19:03:00.999Z,-0.60
2023-04-04T19:05:33.846Z,-0.70
2023-04-04T19:08:04.911Z,-0.70
2023-04-04T19:10:33.391Z,-0.70
2023-04-04T19:13:01.522Z,-0.80
2023-04-04T19:15:30.052Z,-0.90
2023-04-04T19:17:58.515Z,-0.90
2023-04-04T19:20:28.179Z,-0.90
2023-04-04T19:22:56.544Z,-1.00
2023-04-04T19:25:25.213Z,-1.00
2023-04-04T19:27:53.471Z,-1.10
2023-04-04T19:30:42.729Z,-1.10
2023-04-04T19:33:12.127Z,-1.20
2023-04-04T19:35:55.182Z,-1.20
2023-04-04T19:38:26.444Z,-1.20
2023-04-04T19:40:58.313Z,-1.30
2023-04-04T19:43:28.041Z,-1.30
2023-04-04T19:45:58.086Z,-1.40
2023-04-04T19:48:48.757Z,-1.40
2023-04-04T19:51:48.425Z,-1.40
2023-04-04T19:54:16.952Z,-1.40
2023-04-04T19:56:47.491Z,-1.40
2023-04-04T19:59:53.430Z,-1.40
2023-04-04T20:02:57.074Z,-1.40
2023-04-04T20:05:58.013Z,-1.40
2023-04-04T20:08:41.611Z,-1.40
2023-04-04T20:11:09.830Z,-1.40
2023-04-04T20:13:39.326Z,-1.40
2023-04-04T20:16:12.841Z,-1.40
2023-04-04T20:18:43.655Z,-1.50
2023-04-04T20:21:14.043Z,-1.50
2023-04-04T20:23:53.935Z,-1.60
2023-04-04T20:26:51.386Z,-1.60
2023-04-04T20:29:22.644Z,-1.70
2023-04-04T20:31:52.836Z,-1.80
2023-04-04T20:34:43.742Z,-1.80
2023-04-04T20:37:15.106Z,-1.80
2023-04-04T20:39:48.725Z,-1.80
2023-04-04T20:42:48.291Z,-1.80
2023-04-04T20:45:44.844Z,-1.80
2023-04-04T20:48:35.657Z,-1.90
2023-04-04T20:51:04.224Z,-1.90
2023-04-04T20:53:32.839Z,-1.90
2023-04-04T20:56:03.106Z,-1.90
2023-04-04T20:58:32.256Z,-2.00
2023-04-04T21:01:02.007Z,-2.00
2023-04-04T21:03:37.733Z,-2.00
2023-04-04T21:06:14.447Z,-2.10
2023-04-04T21:08:47.966Z,-2.10
2023-04-04T21:11:24.628Z,-2.20
2023-04-04T21:13:53.016Z,-2.20
2023-04-04T21:16:25.641Z,-2.20
2023-04-04T21:18:59.278Z,-2.20
2023-04-04T21:21:27.768Z,-2.30
2023-04-04T21:23:57.641Z,-2.30
2023-04-04T21:26:33.102Z,-2.40
2023-04-04T21:29:03.338Z,-2.40
2023-04-04T21:31:39.624Z,-2.50
2023-04-04T21:34:16.047Z,-2.50
2023-04-04T21:36:45.431Z,-2.60
2023-04-04T21:39:15.575Z,-2.80
2023-04-04T21:41:46.060Z,-2.80
2023-04-04T21:44:14.778Z,-2.80
2023-04-04T21:46:43.414Z,-2.80
2023-04-04T21:49:11.843Z,-2.80
2023-04-04T21:51:40.410Z,-2.90
2023-04-04T21:54:09.562Z,-2.90
2023-04-04T21:56:38.527Z,-2.90
2023-04-04T21:59:09.928Z,-2.90
2023-04-04T22:01:39.178Z,-2.90
2023-04-04T22:04:07.503Z,-2.90
2023-04-04T22:06:36.381Z,-3.00
2023-04-04T22:09:06.632Z,-3.00
2023-04-04T22:11:38.996Z,-3.00
2023-04-04T22:14:08.785Z,-3.10
2023-04-04T22:16:39.883Z,-3.10
2023-04-04T22:19:11.452Z,-3.20
2023-04-04T22:21:48.074Z,-3.20
2023-04-04T22:24:18.419Z,-3.20
2023-04-04T22:26:46.945Z,-3.30
2023-04-04T22:29:16.788Z,-3.30
2023-04-04T22:31:45.526Z,-3.40
2023-04-04T22:34:15.235Z,-3.40
2023-04-04T22:36:44.140Z,-3.50
2023-04-04T22:39:16.340Z,-3.50
2023-04-04T22:41:45.659Z,-3.50
2023-04-04T22:44:14.026Z,-3.60
2023-04-04T22:46:43.727Z,-3.60
2023-04-04T22:49:13.373Z,-3.70
2023-04-04T22:51:45.631Z,-3.70
2023-04-04T22:54:15.695Z,-3.70
2023-04-04T22:56:44.149Z,-3.80
2023-04-04T22:59:12.589Z,-3.90
2023-04-04T23:01:41.277Z,-3.90
2023-04-04T23:04:11.300Z,-3.90
2023-04-04T23:06:39.587Z,-3.90
2023-04-04T23:09:08.962Z,-4.00
2023-04-04T23:11:37.671Z,-4.00
2023-04-04T23:14:09.641Z,-4.00
2023-04-04T23:16:38.315Z,-4.00
2023-04-04T23:19:06.697Z,-4.10
2023-04-04T23:21:36.771Z,-4.10
2023-04-04T23:24:05.809Z,-4.10
2023-04-04T23:26:34.449Z,-4.10
2023-04-04T23:29:03.106Z,-4.20
2023-04-04T23:31:31.692Z,-4.20
2023-04-04T23:34:00.603Z,-4.20
2023-04-04T23:36:29.050Z,-4.20
2023-04-04T23:38:58.832Z,-4.20
2023-04-04T23:41:27.444Z,-4.30
2023-04-04T23:43:55.904Z,-4.30
2023-04-04T23:46:24.421Z,-4.30
2023-04-04T23:48:52.610Z,-4.40
2023-04-04T23:51:21.693Z,-4.40
2023-04-04T23:53:50.399Z,-4.40
2023-04-04T23:56:20.177Z,-4.40
2023-04-04T23:58:48.523Z,-4.50
